Terminal Aerodrome Forecast
Issued by NWS Amarillo, TX

Home | Current Version | Previous Version | Text Only | Print | Product List | Glossary On
Versions: 1 2 3 4 5 6 7 8 9 10 11 12 13 14 15 16
000
FTUS44 KAMA 032320
TAFGUY
TAF
KGUY 032320Z 0400/0424 34016KT P6SM FEW080
     FM040200 33006KT P6SM SKC
     FM041400 36011KT P6SM SKC
     FM042200 01008KT P6SM FEW080=

USA.gov is the U.S. government's official web portal to all federal, state and local government web resources and services.